createdAt,value
2022-08-01T00:03:53.236Z,26.91
2022-08-01T00:08:57.529Z,26.87
2022-08-01T00:14:00.318Z,26.84
2022-08-01T00:19:03.236Z,26.81
2022-08-01T00:24:07.761Z,26.79
2022-08-01T00:30:10.686Z,26.76
2022-08-01T00:34:39.891Z,26.72
2022-08-01T00:39:44.210Z,26.70
2022-08-01T00:44:46.993Z,26.68
2022-08-01T00:49:49.837Z,26.67
2022-08-01T00:54:54.140Z,26.63
2022-08-01T00:59:57.170Z,26.60
2022-08-01T01:05:01.639Z,26.55
2022-08-01T01:10:13.498Z,26.55
2022-08-01T01:15:20.391Z,26.54
2022-08-01T01:20:30.159Z,26.52
2022-08-01T01:25:56.534Z,26.49
2022-08-01T01:31:02.901Z,26.47
2022-08-01T01:36:11.769Z,26.44
2022-08-01T01:41:17.630Z,26.43
2022-08-01T01:46:27.906Z,26.38
2022-08-01T01:51:31.672Z,26.36
2022-08-01T01:56:36.715Z,26.32
2022-08-01T02:02:06.109Z,26.28
2022-08-01T02:07:06.182Z,26.26
2022-08-01T02:12:12.315Z,26.24
2022-08-01T02:17:19.249Z,26.18
2022-08-01T02:22:29.680Z,26.16
2022-08-01T02:27:39.092Z,26.16
2022-08-01T02:32:46.525Z,26.14
2022-08-01T02:37:50.674Z,26.14
2022-08-01T02:42:56.660Z,26.10
2022-08-01T02:48:11.877Z,26.08
2022-08-01T02:53:16.648Z,26.05
2022-08-01T02:58:22.200Z,26.01
2022-08-01T03:03:34.537Z,25.99
2022-08-01T03:08:39.618Z,25.99
2022-08-01T03:13:45.694Z,25.96
2022-08-01T03:18:50.837Z,25.94
2022-08-01T03:23:58.027Z,25.56
2022-08-01T03:29:04.076Z,24.89
2022-08-01T03:34:08.970Z,24.43
2022-08-01T03:39:14.094Z,24.19
2022-08-01T03:44:20.015Z,24.02
2022-08-01T03:49:31.111Z,23.88
2022-08-01T03:54:37.614Z,23.73
2022-08-01T03:59:41.669Z,23.54
2022-08-01T04:04:46.654Z,23.34
2022-08-01T04:09:49.395Z,23.16
2022-08-01T04:14:52.696Z,23.04
2022-08-01T04:19:57.548Z,22.96
2022-08-01T04:25:02.657Z,22.85
2022-08-01T04:30:07.623Z,22.75
2022-08-01T04:35:23.588Z,22.66
2022-08-01T04:40:41.980Z,22.53
2022-08-01T04:45:46.399Z,22.38
2022-08-01T04:50:50.721Z,22.27
2022-08-01T04:55:56.579Z,22.23
2022-08-01T05:00:59.275Z,22.22
2022-08-01T05:06:03.383Z,22.23
2022-08-01T05:11:06.162Z,22.30
2022-08-01T05:16:08.895Z,22.35
2022-08-01T05:21:13.088Z,22.35
2022-08-01T05:26:15.796Z,22.29
2022-08-01T05:31:18.735Z,22.21
2022-08-01T05:36:22.861Z,22.17
2022-08-01T05:41:25.680Z,22.14
2022-08-01T05:46:28.435Z,22.12
2022-08-01T05:51:32.609Z,22.08
2022-08-01T05:56:35.337Z,22.02
2022-08-01T06:01:38.179Z,21.99
2022-08-01T06:06:42.490Z,21.92
2022-08-01T06:11:45.177Z,21.88
2022-08-01T06:16:47.979Z,21.90
2022-08-01T06:21:52.091Z,21.90
2022-08-01T06:26:54.805Z,21.89
2022-08-01T06:31:57.564Z,21.87
2022-08-01T06:37:01.569Z,21.89
2022-08-01T06:42:10.366Z,21.87
2022-08-01T06:47:13.176Z,21.80
2022-08-01T06:52:17.885Z,21.76
2022-08-01T06:57:21.041Z,21.77
2022-08-01T07:02:24.201Z,21.79
2022-08-01T07:07:28.759Z,21.82
2022-08-01T07:12:31.782Z,21.80
2022-08-01T07:17:34.661Z,21.84
2022-08-01T07:22:38.820Z,21.86
2022-08-01T07:27:41.639Z,21.89
2022-08-01T07:32:44.490Z,21.91
2022-08-01T07:37:49.506Z,21.96
2022-08-01T07:42:52.460Z,21.96
2022-08-01T07:47:55.378Z,22.00
2022-08-01T07:52:59.700Z,22.04
2022-08-01T07:58:02.736Z,22.08
2022-08-01T08:03:05.700Z,22.12
2022-08-01T08:13:13.934Z,22.17
2022-08-01T08:18:16.722Z,22.12
2022-08-01T08:23:42.252Z,21.95
2022-08-01T08:28:47.348Z,21.82
2022-08-01T08:33:50.147Z,21.74
2022-08-01T08:38:54.317Z,21.75
2022-08-01T08:43:58.426Z,21.77
2022-08-01T08:49:03.218Z,21.85
2022-08-01T08:54:09.756Z,21.96
2022-08-01T08:59:14.704Z,22.09
2022-08-01T09:04:17.406Z,22.21
2022-08-01T09:09:21.601Z,22.30
2022-08-01T09:14:26.405Z,22.40
2022-08-01T09:19:40.064Z,22.49
2022-08-01T09:24:59.661Z,22.62
2022-08-01T09:30:14.069Z,22.76
2022-08-01T09:35:30.115Z,22.87
2022-08-01T09:40:49.434Z,22.95
2022-08-01T09:45:53.704Z,23.04
2022-08-01T09:51:04.964Z,23.10
2022-08-01T09:56:15.169Z,23.19
2022-08-01T10:01:18.016Z,23.34
2022-08-01T10:06:24.880Z,23.40
2022-08-01T10:11:36.019Z,23.50
2022-08-01T10:16:41.240Z,23.55
2022-08-01T10:21:58.465Z,23.59
2022-08-01T10:27:09.058Z,23.62
2022-08-01T10:32:15.757Z,23.69
2022-08-01T10:37:19.121Z,23.78
2022-08-01T10:42:24.048Z,23.86
2022-08-01T10:47:49.869Z,23.90
2022-08-01T10:53:15.916Z,23.98
2022-08-01T10:58:25.990Z,24.05
2022-08-01T11:03:56.220Z,24.08
2022-08-01T11:09:00.167Z,24.11
2022-08-01T11:14:08.152Z,24.16
2022-08-01T11:19:12.334Z,24.23
2022-08-01T11:24:15.149Z,24.29
2022-08-01T11:29:22.346Z,24.37
2022-08-01T11:34:54.320Z,24.38
2022-08-01T11:40:17.497Z,24.42
2022-08-01T11:45:21.835Z,24.46
2022-08-01T11:50:35.268Z,24.55
2022-08-01T11:55:38.364Z,24.66
2022-08-01T12:00:43.985Z,24.71
2022-08-01T12:05:49.834Z,24.78
2022-08-01T12:10:52.701Z,24.83
2022-08-01T12:16:11.051Z,24.88
2022-08-01T12:21:14.016Z,24.97
2022-08-01T12:26:25.873Z,25.06
2022-08-01T12:31:36.666Z,25.05
2022-08-01T12:36:39.497Z,25.12
2022-08-01T12:41:45.188Z,25.25
2022-08-01T12:46:49.887Z,25.28
2022-08-01T12:51:57.564Z,25.28
2022-08-01T12:57:00.598Z,25.30
2022-08-01T13:02:12.113Z,25.31
2022-08-01T13:07:14.919Z,25.32
2022-08-01T13:12:17.758Z,25.36
2022-08-01T13:17:33.617Z,25.42
2022-08-01T13:22:37.223Z,25.47
2022-08-01T13:27:40.732Z,25.49
2022-08-01T13:33:01.804Z,25.52
2022-08-01T13:38:04.490Z,25.59
2022-08-01T13:43:07.214Z,25.63
2022-08-01T13:48:13.093Z,25.64
2022-08-01T13:53:22.328Z,25.68
2022-08-01T13:58:25.515Z,25.72
2022-08-01T14:03:33.922Z,25.75
2022-08-01T14:08:36.810Z,25.76
2022-08-01T14:13:46.626Z,25.82
2022-08-01T14:18:51.553Z,25.81
2022-08-01T14:23:54.328Z,25.83
2022-08-01T14:28:57.046Z,25.84
2022-08-01T14:34:01.226Z,25.91
2022-08-01T14:39:04.406Z,26.02
2022-08-01T14:44:07.255Z,26.04
2022-08-01T14:49:11.654Z,26.03
2022-08-01T14:54:14.560Z,26.00
2022-08-01T14:59:21.692Z,26.07
2022-08-01T15:04:26.617Z,26.17
2022-08-01T15:09:29.460Z,26.26
2022-08-01T15:14:50.430Z,26.28
2022-08-01T15:19:56.035Z,26.32
2022-08-01T15:25:00.754Z,26.35
2022-08-01T15:30:04.632Z,26.48
2022-08-01T15:35:11.015Z,26.52
2022-08-01T15:40:14.007Z,26.45
2022-08-01T15:45:44.530Z,26.48
2022-08-01T15:50:43.546Z,26.50
2022-08-01T15:55:52.018Z,26.52
2022-08-01T16:00:55.570Z,26.44
2022-08-01T16:05:59.845Z,26.53
2022-08-01T16:11:03.149Z,26.67
2022-08-01T16:16:06.262Z,26.60
2022-08-01T16:21:11.785Z,26.75
2022-08-01T16:26:27.026Z,26.67
2022-08-01T16:31:53.191Z,26.68
2022-08-01T16:36:56.234Z,26.78
2022-08-01T16:41:59.197Z,26.84
2022-08-01T16:47:05.278Z,26.87
2022-08-01T16:52:10.342Z,26.94
2022-08-01T16:57:13.451Z,26.93
2022-08-01T17:02:16.599Z,26.97
2022-08-01T17:07:20.790Z,26.95
2022-08-01T17:12:23.692Z,27.02
2022-08-01T17:17:26.769Z,27.10
2022-08-01T17:22:30.881Z,27.22
2022-08-01T17:27:33.723Z,27.18
2022-08-01T17:32:36.504Z,27.18
2022-08-01T17:37:40.914Z,27.29
2022-08-01T17:42:43.770Z,27.28
2022-08-01T17:47:50.907Z,27.31
2022-08-01T17:52:55.484Z,27.33
2022-08-01T17:57:58.571Z,27.31
2022-08-01T18:03:01.612Z,27.32
2022-08-01T18:08:07.829Z,27.42
2022-08-01T18:13:10.734Z,27.55
2022-08-01T18:18:16.733Z,27.57
2022-08-01T18:23:22.140Z,27.64
2022-08-01T18:28:30.972Z,27.58
2022-08-01T18:33:36.346Z,27.54
2022-08-01T18:38:44.329Z,27.46
2022-08-01T18:43:48.590Z,27.55
2022-08-01T18:48:51.487Z,27.62
2022-08-01T18:53:57.778Z,27.65
2022-08-01T18:59:00.563Z,27.66
2022-08-01T19:04:03.385Z,27.62
2022-08-01T19:09:08.245Z,27.59
2022-08-01T19:14:11.843Z,27.58
2022-08-01T19:19:14.789Z,27.54
2022-08-01T19:24:33.668Z,27.57
2022-08-01T19:29:38.638Z,27.54
2022-08-01T19:34:48.716Z,27.43
2022-08-01T19:39:52.850Z,27.31
2022-08-01T19:44:56.096Z,27.31
2022-08-01T19:49:59.174Z,27.40
2022-08-01T19:55:04.096Z,27.35
2022-08-01T20:00:13.198Z,27.35
2022-08-01T20:05:30.966Z,27.42
2022-08-01T20:10:35.706Z,27.34
2022-08-01T20:15:39.158Z,27.40
2022-08-01T20:20:44.550Z,27.46
2022-08-01T20:25:54.114Z,27.45
2022-08-01T20:31:03.525Z,27.32
2022-08-01T20:36:12.256Z,27.48
2022-08-01T20:41:29.792Z,27.44
2022-08-01T20:46:32.881Z,27.43
2022-08-01T20:51:42.324Z,27.45
2022-08-01T20:56:55.627Z,27.36
2022-08-01T21:02:03.014Z,27.43
2022-08-01T21:07:19.258Z,27.45
2022-08-01T21:12:32.420Z,27.47
2022-08-01T21:17:46.735Z,27.47
2022-08-01T21:23:04.515Z,27.29
2022-08-01T21:28:08.770Z,27.32
2022-08-01T21:33:13.725Z,27.44
2022-08-01T21:38:17.322Z,27.45
2022-08-01T21:43:23.306Z,27.43
2022-08-01T21:48:27.166Z,27.42
2022-08-01T21:53:43.385Z,27.41
2022-08-01T21:58:55.631Z,27.38
2022-08-01T22:04:02.194Z,27.37
2022-08-01T22:09:07.727Z,27.32
2022-08-01T22:14:16.216Z,27.21
2022-08-01T22:19:29.568Z,27.12
2022-08-01T22:24:43.219Z,27.07
2022-08-01T22:29:48.161Z,27.06
2022-08-01T22:34:52.248Z,27.04
2022-08-01T22:39:58.760Z,26.99
2022-08-01T22:45:07.177Z,26.96
2022-08-01T22:50:17.641Z,26.92
2022-08-01T22:55:58.707Z,26.90
2022-08-01T23:01:07.289Z,26.86
2022-08-01T23:06:13.290Z,26.80
2022-08-01T23:11:16.327Z,26.71
2022-08-01T23:16:21.356Z,26.68
2022-08-01T23:21:24.613Z,26.60
2022-08-01T23:26:30.429Z,26.38
2022-08-01T23:32:06.187Z,26.26
2022-08-01T23:36:57.275Z,26.28
2022-08-01T23:42:04.128Z,26.21
2022-08-01T23:47:11.190Z,26.03
2022-08-01T23:52:20.547Z,25.96
2022-08-01T23:57:24.573Z,25.98
